createdAt,value
2022-08-08T00:00:53.877Z,94299.47
2022-08-08T00:02:55.355Z,94295.66
2022-08-08T00:06:02.847Z,94304.03
2022-08-08T00:08:51.549Z,94304.03
2022-08-08T00:12:07.295Z,94300.22
2022-08-08T00:14:57.046Z,94318.00
2022-08-08T00:17:58.778Z,94314.03
2022-08-08T00:20:42.581Z,94315.75
2022-08-08T00:23:20.777Z,94319.56
2022-08-08T00:25:56.557Z,94323.09
2022-08-08T00:28:35.496Z,94321.91
2022-08-08T00:32:21.039Z,94320.69
2022-08-08T00:34:47.313Z,94317.94
2022-08-08T00:37:45.348Z,94317.03
2022-08-08T00:41:07.956Z,94313.50
2022-08-08T00:43:45.934Z,94307.63
2022-08-08T00:46:32.176Z,94298.00
2022-08-08T00:50:09.178Z,94305.00
2022-08-08T00:53:14.203Z,94317.75
2022-08-08T00:56:22.520Z,94306.44
2022-08-08T00:59:18.708Z,94311.59
2022-08-08T01:03:57.501Z,94310.53
2022-08-08T01:05:58.452Z,94296.47
2022-08-08T01:08:53.725Z,94300.50
2022-08-08T01:11:38.529Z,94294.22
2022-08-08T01:14:57.243Z,94297.38
2022-08-08T01:17:53.884Z,94294.53
2022-08-08T01:20:51.325Z,94301.22
2022-08-08T01:24:05.358Z,94298.50
2022-08-08T01:27:06.995Z,94298.81
2022-08-08T01:30:21.964Z,94301.63
2022-08-08T01:33:27.959Z,94302.09
2022-08-08T01:36:34.428Z,94302.09
2022-08-08T01:39:23.709Z,94299.75
2022-08-08T01:42:36.135Z,94295.44
2022-08-08T01:45:39.041Z,94295.03
2022-08-08T01:48:30.862Z,94296.22
2022-08-08T01:52:04.495Z,94293.75
2022-08-08T01:55:19.204Z,94298.50
2022-08-08T01:58:12.111Z,94296.56
2022-08-08T02:01:03.463Z,94306.38
2022-08-08T02:04:01.804Z,94300.53
2022-08-08T02:06:31.615Z,94305.25
2022-08-08T02:09:15.960Z,94313.06
2022-08-08T02:11:59.837Z,94306.94
2022-08-08T02:14:55.548Z,94307.34
2022-08-08T02:17:54.059Z,94306.63
2022-08-08T02:21:13.335Z,94303.13
2022-08-08T02:23:56.675Z,94300.81
2022-08-08T02:26:36.125Z,94304.75
2022-08-08T02:29:46.920Z,94302.09
2022-08-08T02:32:32.377Z,94306.72
2022-08-08T02:35:07.971Z,94310.56
2022-08-08T02:37:57.096Z,94299.97
2022-08-08T02:40:30.886Z,94297.22
2022-08-08T02:44:34.926Z,94304.66
2022-08-08T02:47:00.410Z,94314.13
2022-08-08T02:49:51.077Z,94300.91
2022-08-08T02:52:39.789Z,94294.44
2022-08-08T02:55:10.489Z,94300.66
2022-08-08T02:57:51.308Z,94297.06
2022-08-08T03:00:31.713Z,94299.06
2022-08-08T03:03:46.208Z,94306.03
2022-08-08T03:06:34.755Z,94297.34
2022-08-08T03:09:42.417Z,94293.44
2022-08-08T03:12:36.680Z,94301.75
2022-08-08T03:16:00.168Z,94304.41
2022-08-08T03:18:52.810Z,94299.25
2022-08-08T03:21:19.327Z,94306.69
2022-08-08T03:23:59.283Z,94304.75
2022-08-08T03:26:42.689Z,94312.56
2022-08-08T03:29:20.797Z,94310.22
2022-08-08T03:32:22.992Z,94311.41
2022-08-08T03:34:56.624Z,94309.69
2022-08-08T03:37:59.926Z,94315.09
2022-08-08T03:40:28.922Z,94317.06
2022-08-08T03:42:58.699Z,94317.50
2022-08-08T03:46:05.321Z,94330.50
2022-08-08T03:49:10.152Z,94332.47
2022-08-08T03:51:16.923Z,94338.34
2022-08-08T03:53:47.351Z,94335.59
2022-08-08T03:56:31.504Z,94333.66
2022-08-08T03:58:59.335Z,94339.06
2022-08-08T04:02:12.616Z,94340.69
2022-08-08T04:04:23.085Z,94345.16
2022-08-08T04:07:01.284Z,94338.13
2022-08-08T04:09:30.852Z,94350.78
2022-08-08T04:12:15.918Z,94358.88
2022-08-08T04:14:45.340Z,94352.94
2022-08-08T04:17:22.836Z,94359.97
2022-08-08T04:20:02.047Z,94357.31
2022-08-08T04:22:32.119Z,94355.84
2022-08-08T04:25:02.260Z,94364.13
2022-08-08T04:28:03.381Z,94358.34
2022-08-08T04:30:17.908Z,94365.34
2022-08-08T04:32:47.918Z,94364.41
2022-08-08T04:35:17.551Z,94362.75
2022-08-08T04:37:47.039Z,94369.44
2022-08-08T04:40:17.839Z,94368.13
2022-08-08T04:42:55.846Z,94367.66
2022-08-08T04:45:23.693Z,94369.28
2022-08-08T04:47:53.363Z,94368.41
2022-08-08T04:50:24.300Z,94371.84
2022-08-08T04:53:01.218Z,94369.44
2022-08-08T04:55:37.812Z,94378.06
2022-08-08T04:58:17.592Z,94373.34
2022-08-08T05:00:45.037Z,94367.41
2022-08-08T05:03:18.942Z,94381.84
2022-08-08T05:06:01.363Z,94374.34
2022-08-08T05:08:40.390Z,94371.16
2022-08-08T05:11:08.568Z,94371.06
2022-08-08T05:13:36.947Z,94375.31
2022-08-08T05:16:48.117Z,94379.28
2022-08-08T05:20:04.226Z,94366.06
2022-08-08T05:22:00.479Z,94372.06
2022-08-08T05:24:27.614Z,94368.34
2022-08-08T05:26:54.326Z,94369.78
2022-08-08T05:29:20.996Z,94372.00
2022-08-08T05:32:02.995Z,94379.34
2022-08-08T05:34:47.216Z,94372.41
2022-08-08T05:37:19.800Z,94373.91
2022-08-08T05:39:52.853Z,94360.19
2022-08-08T05:42:28.568Z,94363.50
2022-08-08T05:45:00.870Z,94360.09
2022-08-08T05:47:59.825Z,94359.75
2022-08-08T05:50:30.081Z,94373.03
2022-08-08T05:53:54.696Z,94366.34
2022-08-08T05:56:11.418Z,94372.28
2022-08-08T05:58:57.982Z,94371.13
2022-08-08T06:01:57.397Z,94375.91
2022-08-08T06:04:23.432Z,94375.84
2022-08-08T06:07:00.491Z,94383.25
2022-08-08T06:09:58.814Z,94367.78
2022-08-08T06:12:29.952Z,94367.47
2022-08-08T06:15:00.232Z,94371.97
2022-08-08T06:17:51.520Z,94372.88
2022-08-08T06:20:16.371Z,94367.91
2022-08-08T06:22:46.264Z,94377.41
2022-08-08T06:25:16.129Z,94369.25
2022-08-08T06:27:48.299Z,94372.84
2022-08-08T06:30:20.254Z,94377.66
2022-08-08T06:32:57.525Z,94372.31
2022-08-08T06:36:08.636Z,94379.25
2022-08-08T06:38:18.736Z,94389.72
2022-08-08T06:40:53.908Z,94385.06
2022-08-08T06:43:28.515Z,94380.09
2022-08-08T06:46:00.546Z,94388.44
2022-08-08T06:48:27.366Z,94392.84
2022-08-08T06:50:55.616Z,94375.66
2022-08-08T06:53:22.890Z,94382.56
2022-08-08T06:56:00.483Z,94384.59
2022-08-08T06:58:30.560Z,94382.00
2022-08-08T07:01:01.645Z,94377.41
2022-08-08T07:04:40.605Z,94373.09
2022-08-08T07:06:54.583Z,94380.88
2022-08-08T07:09:27.123Z,94376.16
2022-08-08T07:12:09.029Z,94382.63
2022-08-08T07:14:58.104Z,94382.19
2022-08-08T07:17:56.524Z,94383.81
2022-08-08T07:20:21.250Z,94380.22
2022-08-08T07:23:04.543Z,94395.53
2022-08-08T07:25:38.762Z,94398.81
2022-08-08T07:28:18.822Z,94396.66
2022-08-08T07:30:47.051Z,94395.88
2022-08-08T07:33:17.346Z,94398.78
2022-08-08T07:35:48.468Z,94393.34
2022-08-08T07:38:18.319Z,94403.25
2022-08-08T07:40:49.070Z,94401.22
2022-08-08T07:43:23.150Z,94407.81
2022-08-08T07:46:18.396Z,94412.34
2022-08-08T07:48:49.186Z,94407.09
2022-08-08T07:51:24.319Z,94402.81
2022-08-08T07:54:24.023Z,94405.09
2022-08-08T07:57:17.064Z,94404.53
2022-08-08T08:00:13.216Z,94402.94
2022-08-08T08:03:11.132Z,94420.75
2022-08-08T08:05:43.427Z,94412.28
2022-08-08T08:08:20.528Z,94408.56
2022-08-08T08:10:51.718Z,94415.03
2022-08-08T08:13:25.424Z,94417.47
2022-08-08T08:16:12.040Z,94421.06
2022-08-08T08:18:55.882Z,94416.72
2022-08-08T08:21:43.949Z,94420.69
2022-08-08T08:24:15.641Z,94420.09
2022-08-08T08:26:52.453Z,94413.78
2022-08-08T08:29:19.649Z,94414.66
2022-08-08T08:31:53.970Z,94424.72
2022-08-08T08:34:24.297Z,94424.19
2022-08-08T08:36:58.802Z,94432.44
2022-08-08T08:39:59.586Z,94426.97
2022-08-08T08:42:14.701Z,94445.06
2022-08-08T08:44:46.689Z,94430.44
2022-08-08T08:47:18.614Z,94428.59
2022-08-08T08:49:48.519Z,94423.19
2022-08-08T08:52:17.834Z,94431.88
2022-08-08T08:54:48.894Z,94424.59
2022-08-08T08:57:23.602Z,94422.44
2022-08-08T09:00:00.258Z,94418.03
2022-08-08T09:02:34.420Z,94427.59
2022-08-08T09:05:05.047Z,94419.66
2022-08-08T09:07:39.216Z,94431.69
2022-08-08T09:10:23.140Z,94427.25
2022-08-08T09:12:56.655Z,94417.47
2022-08-08T09:15:41.072Z,94427.81
2022-08-08T09:18:09.506Z,94429.97
2022-08-08T09:22:01.009Z,94419.31
2022-08-08T09:23:33.701Z,94413.94
2022-08-08T09:26:18.817Z,94425.09
2022-08-08T09:28:50.202Z,94434.13
2022-08-08T09:31:42.234Z,94438.06
2022-08-08T09:34:31.285Z,94430.22
2022-08-08T09:37:28.825Z,94430.47
2022-08-08T09:40:11.315Z,94419.53
2022-08-08T09:42:44.449Z,94430.06
2022-08-08T09:45:55.388Z,94427.25
2022-08-08T09:48:16.274Z,94425.16
2022-08-08T09:50:50.741Z,94418.66
2022-08-08T09:53:31.917Z,94419.78
2022-08-08T09:56:22.843Z,94434.31
2022-08-08T09:59:32.060Z,94444.28
2022-08-08T10:01:59.490Z,94411.59
2022-08-08T10:04:39.818Z,94430.97
2022-08-08T10:07:17.052Z,94428.63
2022-08-08T10:10:00.603Z,94410.28
2022-08-08T10:12:53.382Z,94425.16
2022-08-08T10:15:26.469Z,94429.94
2022-08-08T10:18:10.096Z,94412.09
2022-08-08T10:20:58.179Z,94428.25
2022-08-08T10:23:50.800Z,94418.88
2022-08-08T10:26:30.761Z,94406.59
2022-08-08T10:29:20.868Z,94406.94
2022-08-08T10:32:16.404Z,94403.44
2022-08-08T10:35:00.315Z,94407.41
2022-08-08T10:37:34.742Z,94406.78
2022-08-08T10:40:17.009Z,94418.75
2022-08-08T10:42:45.330Z,94407.03
2022-08-08T10:45:16.102Z,94417.19
2022-08-08T10:47:48.497Z,94415.34
2022-08-08T10:50:20.433Z,94401.91
2022-08-08T10:52:51.443Z,94403.47
2022-08-08T10:55:39.413Z,94397.34
2022-08-08T10:58:08.572Z,94401.22
2022-08-08T11:00:48.836Z,94405.50
2022-08-08T11:03:37.125Z,94406.38
2022-08-08T11:06:12.368Z,94416.59
2022-08-08T11:08:50.047Z,94409.69
2022-08-08T11:11:59.863Z,94416.81
2022-08-08T11:14:12.402Z,94417.47
2022-08-08T11:16:46.696Z,94418.66
2022-08-08T11:19:15.747Z,94405.69
2022-08-08T11:21:55.549Z,94411.97
2022-08-08T11:24:26.215Z,94412.97
2022-08-08T11:26:57.665Z,94413.00
2022-08-08T11:29:41.596Z,94409.97
2022-08-08T11:32:15.417Z,94412.69
2022-08-08T11:35:23.554Z,94407.69
2022-08-08T11:38:39.584Z,94406.53
2022-08-08T11:40:27.297Z,94392.31
2022-08-08T11:43:00.601Z,94397.63
2022-08-08T11:45:28.116Z,94400.88
2022-08-08T11:48:04.644Z,94386.63
2022-08-08T11:50:34.060Z,94397.38
2022-08-08T11:53:05.834Z,94400.19
2022-08-08T11:55:36.410Z,94390.06
2022-08-08T11:58:14.375Z,94396.91
2022-08-08T12:00:55.297Z,94394.84
2022-08-08T12:03:25.524Z,94392.75
2022-08-08T12:05:57.774Z,94394.91
2022-08-08T12:08:36.573Z,94387.06
2022-08-08T12:11:23.294Z,94391.72
2022-08-08T12:14:04.641Z,94396.25
2022-08-08T12:16:39.558Z,94398.09
2022-08-08T12:19:13.505Z,94391.56
2022-08-08T12:21:59.353Z,94384.75
2022-08-08T12:24:28.175Z,94377.63
2022-08-08T12:26:56.991Z,94383.63
2022-08-08T12:29:42.007Z,94385.56
2022-08-08T12:32:19.958Z,94385.69
2022-08-08T12:35:01.376Z,94376.63
2022-08-08T12:37:41.206Z,94368.41
2022-08-08T12:40:22.868Z,94383.81
2022-08-08T12:42:52.069Z,94376.47
2022-08-08T12:45:54.127Z,94383.22
2022-08-08T12:48:37.403Z,94375.53
2022-08-08T12:51:07.812Z,94371.25
2022-08-08T12:53:58.997Z,94382.50
2022-08-08T12:56:33.913Z,94371.44
2022-08-08T12:59:01.101Z,94368.72
2022-08-08T13:01:38.069Z,94380.75
2022-08-08T13:04:18.515Z,94370.06
2022-08-08T13:07:17.019Z,94373.91
2022-08-08T13:10:04.526Z,94360.66
2022-08-08T13:12:35.997Z,94363.16
2022-08-08T13:15:09.692Z,94361.41
2022-08-08T13:18:07.554Z,94360.22
2022-08-08T13:20:27.110Z,94366.63
2022-08-08T13:23:31.135Z,94369.44
2022-08-08T13:25:43.642Z,94373.03
2022-08-08T13:28:17.510Z,94358.97
2022-08-08T13:30:45.471Z,94359.31
2022-08-08T13:33:18.370Z,94355.84
2022-08-08T13:35:50.752Z,94357.50
2022-08-08T13:38:18.140Z,94356.47
2022-08-08T13:40:46.102Z,94352.81
2022-08-08T13:43:16.705Z,94347.09
2022-08-08T13:45:47.207Z,94359.72
2022-08-08T13:48:25.868Z,94346.91
2022-08-08T13:50:57.590Z,94341.13
2022-08-08T13:53:31.453Z,94344.75
2022-08-08T13:56:02.349Z,94340.88
2022-08-08T13:58:30.081Z,94345.09
2022-08-08T14:00:57.223Z,94334.56
2022-08-08T14:03:53.614Z,94350.78
2022-08-08T14:06:32.380Z,94345.38
2022-08-08T14:09:25.253Z,94344.25
2022-08-08T14:11:48.811Z,94338.00
2022-08-08T14:14:20.520Z,94332.38
2022-08-08T14:16:52.394Z,94328.28
2022-08-08T14:19:28.018Z,94334.63
2022-08-08T14:22:22.401Z,94322.91
2022-08-08T14:25:15.339Z,94324.75
2022-08-08T14:27:59.451Z,94332.03
2022-08-08T14:30:34.392Z,94325.19
2022-08-08T14:33:01.408Z,94344.78
2022-08-08T14:35:36.111Z,94333.78
2022-08-08T14:38:33.607Z,94319.06
2022-08-08T14:40:59.294Z,94318.06
2022-08-08T14:44:02.204Z,94338.44
2022-08-08T14:46:17.238Z,94327.97
2022-08-08T14:48:57.287Z,94313.84
2022-08-08T14:51:47.190Z,94324.22
2022-08-08T14:54:13.914Z,94326.06
2022-08-08T14:56:42.946Z,94315.72
2022-08-08T14:59:21.303Z,94319.63
2022-08-08T15:01:58.723Z,94318.00
2022-08-08T15:04:26.472Z,94337.81
2022-08-08T15:06:53.510Z,94320.31
2022-08-08T15:09:21.786Z,94322.91
2022-08-08T15:11:53.053Z,94314.97
2022-08-08T15:14:26.460Z,94313.69
2022-08-08T15:16:55.029Z,94304.00
2022-08-08T15:19:23.933Z,94312.19
2022-08-08T15:21:55.171Z,94331.16
2022-08-08T15:24:24.520Z,94324.09
2022-08-08T15:26:58.750Z,94322.56
2022-08-08T15:29:38.875Z,94324.03
2022-08-08T15:32:20.645Z,94312.75
2022-08-08T15:34:48.093Z,94308.03
2022-08-08T15:37:14.842Z,94308.31
2022-08-08T15:39:43.985Z,94324.31
2022-08-08T15:42:31.471Z,94306.59
2022-08-08T15:45:02.541Z,94306.50
2022-08-08T15:47:31.450Z,94304.75
2022-08-08T15:49:59.113Z,94313.88
2022-08-08T15:52:25.995Z,94319.47
2022-08-08T15:54:53.160Z,94313.59
2022-08-08T15:57:21.165Z,94308.47
2022-08-08T16:00:18.024Z,94317.78
2022-08-08T16:02:35.575Z,94312.38
2022-08-08T16:05:03.881Z,94312.41
2022-08-08T16:07:39.592Z,94313.41
2022-08-08T16:13:11.641Z,94315.75
2022-08-08T16:13:32.448Z,94316.28
2022-08-08T16:15:57.478Z,94316.00
2022-08-08T16:18:26.689Z,94310.06
2022-08-08T16:20:53.413Z,94325.22
2022-08-08T16:23:26.943Z,94308.00
2022-08-08T16:25:54.527Z,94317.84
2022-08-08T16:28:35.938Z,94322.31
2022-08-08T16:31:07.678Z,94322.88
2022-08-08T16:33:38.489Z,94318.44
2022-08-08T16:36:09.137Z,94322.19
2022-08-08T16:38:44.498Z,94315.59
2022-08-08T16:41:20.096Z,94315.59
2022-08-08T16:43:50.664Z,94320.16
2022-08-08T16:46:43.448Z,94317.19
2022-08-08T16:49:08.003Z,94310.59
2022-08-08T16:55:03.840Z,94315.97
2022-08-08T16:55:06.675Z,94300.47
2022-08-08T16:57:23.514Z,94313.13
2022-08-08T17:00:06.540Z,94314.28
2022-08-08T17:02:39.684Z,94316.59
2022-08-08T17:05:08.419Z,94317.84
2022-08-08T17:07:37.819Z,94314.75
2022-08-08T17:10:08.946Z,94309.81
2022-08-08T17:12:36.693Z,94313.38
2022-08-08T17:15:17.463Z,94315.44
2022-08-08T17:18:02.772Z,94319.34
2022-08-08T17:20:32.065Z,94330.97
2022-08-08T17:23:18.270Z,94327.56
2022-08-08T17:25:52.226Z,94325.63
2022-08-08T17:28:34.349Z,94324.59
2022-08-08T17:31:39.335Z,94318.56
2022-08-08T17:34:49.090Z,94329.19
2022-08-08T17:37:00.172Z,94330.63
2022-08-08T17:40:04.163Z,94330.81
2022-08-08T17:42:12.490Z,94334.28
2022-08-08T17:44:39.928Z,94345.47
2022-08-08T17:47:16.316Z,94345.25
2022-08-08T17:49:52.868Z,94342.44
2022-08-08T17:52:23.240Z,94350.56
2022-08-08T17:54:51.903Z,94356.78
2022-08-08T17:57:23.127Z,94357.28
2022-08-08T17:59:51.669Z,94352.94
2022-08-08T18:02:28.432Z,94357.13
2022-08-08T18:04:58.393Z,94365.28
2022-08-08T18:08:02.454Z,94359.97
2022-08-08T18:10:16.526Z,94362.59
2022-08-08T18:12:45.933Z,94365.59
2022-08-08T18:15:13.243Z,94374.19
2022-08-08T18:18:04.935Z,94375.44
2022-08-08T18:20:43.080Z,94379.28
2022-08-08T18:23:14.804Z,94380.75
2022-08-08T18:25:43.489Z,94387.81
2022-08-08T18:28:13.493Z,94382.97
2022-08-08T18:30:42.640Z,94385.00
2022-08-08T18:33:36.697Z,94387.19
2022-08-08T18:36:03.198Z,94394.97
2022-08-08T18:38:32.344Z,94400.09
2022-08-08T18:41:03.094Z,94392.81
2022-08-08T18:43:43.143Z,94396.13
2022-08-08T18:46:54.105Z,94401.78
2022-08-08T18:48:58.852Z,94404.66
2022-08-08T18:51:53.167Z,94405.03
2022-08-08T18:54:22.679Z,94411.38
2022-08-08T18:56:57.113Z,94421.19
2022-08-08T18:59:23.960Z,94423.03
2022-08-08T19:02:25.390Z,94431.41
2022-08-08T19:04:38.037Z,94427.75
2022-08-08T19:07:05.117Z,94438.09
2022-08-08T19:09:49.552Z,94433.47
2022-08-08T19:12:19.334Z,94438.16
2022-08-08T19:14:53.162Z,94446.19
2022-08-08T19:17:28.719Z,94447.44
2022-08-08T19:20:02.273Z,94444.22
2022-08-08T19:22:29.996Z,94448.84
2022-08-08T19:25:05.091Z,94449.63
2022-08-08T19:27:55.747Z,94454.44
2022-08-08T19:30:26.485Z,94457.38
2022-08-08T19:32:54.000Z,94466.03
2022-08-08T19:35:25.487Z,94465.72
2022-08-08T19:38:11.131Z,94463.03
2022-08-08T19:40:37.874Z,94465.19
2022-08-08T19:43:11.769Z,94467.16
2022-08-08T19:45:58.539Z,94468.56
2022-08-08T19:48:29.068Z,94465.59
2022-08-08T19:50:59.449Z,94471.59
2022-08-08T19:53:51.698Z,94472.44
2022-08-08T19:56:16.422Z,94479.00
2022-08-08T19:58:52.878Z,94479.84
2022-08-08T20:01:31.593Z,94479.53
2022-08-08T20:04:08.624Z,94479.03
2022-08-08T20:06:35.862Z,94478.69
2022-08-08T20:09:04.607Z,94478.66
2022-08-08T20:11:43.203Z,94483.06
2022-08-08T20:14:32.312Z,94479.19
2022-08-08T20:16:57.664Z,94483.50
2022-08-08T20:19:34.822Z,94486.50
2022-08-08T20:22:20.600Z,94482.53
2022-08-08T20:24:53.610Z,94485.44
2022-08-08T20:27:43.825Z,94492.25
2022-08-08T20:30:10.745Z,94492.19
2022-08-08T20:32:57.413Z,94485.44
2022-08-08T20:35:57.170Z,94489.09
2022-08-08T20:38:12.132Z,94486.13
2022-08-08T20:40:40.933Z,94481.78
2022-08-08T20:43:16.207Z,94485.59
2022-08-08T20:45:57.399Z,94483.34
2022-08-08T20:48:26.237Z,94482.72
2022-08-08T20:50:55.865Z,94486.72
2022-08-08T20:53:58.102Z,94478.41
2022-08-08T20:56:09.624Z,94477.50
2022-08-08T20:58:38.677Z,94484.41
2022-08-08T21:01:10.936Z,94477.44
2022-08-08T21:03:56.076Z,94476.09
2022-08-08T21:06:52.613Z,94481.88
2022-08-08T21:09:16.128Z,94476.44
2022-08-08T21:11:52.169Z,94486.97
2022-08-08T21:14:33.668Z,94487.63
2022-08-08T21:17:06.278Z,94492.81
2022-08-08T21:19:45.883Z,94493.41
2022-08-08T21:22:15.482Z,94493.22
2022-08-08T21:24:53.573Z,94488.59
2022-08-08T21:27:38.727Z,94493.22
2022-08-08T21:30:19.411Z,94489.25
2022-08-08T21:32:52.272Z,94493.22
2022-08-08T21:36:13.930Z,94495.19
2022-08-08T21:38:18.081Z,94496.75
2022-08-08T21:40:54.764Z,94496.81
2022-08-08T21:43:33.200Z,94500.63
2022-08-08T21:48:02.441Z,94502.81
2022-08-08T21:48:53.571Z,94494.50
2022-08-08T21:54:31.284Z,94498.69
2022-08-08T21:54:32.000Z,94498.00
2022-08-08T21:56:59.426Z,94504.06
2022-08-08T21:59:28.513Z,94501.28
2022-08-08T22:02:15.812Z,94487.16
2022-08-08T22:04:42.880Z,94487.00
2022-08-08T22:07:09.678Z,94499.16
2022-08-08T22:09:43.602Z,94485.53
2022-08-08T22:12:14.978Z,94496.78
2022-08-08T22:14:49.813Z,94495.78
2022-08-08T22:17:18.361Z,94500.97
2022-08-08T22:20:10.914Z,94501.25
2022-08-08T22:22:37.883Z,94495.25
2022-08-08T22:25:17.705Z,94497.25
2022-08-08T22:28:04.352Z,94497.78
2022-08-08T22:30:42.434Z,94497.06
2022-08-08T22:33:21.974Z,94503.31
2022-08-08T22:36:04.612Z,94493.63
2022-08-08T22:38:48.131Z,94496.13
2022-08-08T22:41:21.763Z,94498.47
2022-08-08T22:44:05.566Z,94497.97
2022-08-08T22:46:34.554Z,94493.97
2022-08-08T22:49:06.990Z,94490.88
2022-08-08T22:51:42.769Z,94493.72
2022-08-08T22:54:31.343Z,94493.03
2022-08-08T22:57:00.372Z,94487.00
2022-08-08T22:59:27.187Z,94484.03
2022-08-08T23:02:12.570Z,94485.25
2022-08-08T23:04:55.821Z,94481.25
2022-08-08T23:07:51.430Z,94485.31
2022-08-08T23:10:13.858Z,94481.59
2022-08-08T23:12:48.928Z,94481.41
2022-08-08T23:16:41.494Z,94474.66
2022-08-08T23:18:12.083Z,94479.59
2022-08-08T23:20:41.117Z,94478.00
2022-08-08T23:23:10.507Z,94486.06
2022-08-08T23:25:48.162Z,94485.63
2022-08-08T23:28:17.653Z,94491.03
2022-08-08T23:30:46.146Z,94489.53
2022-08-08T23:33:18.916Z,94486.38
2022-08-08T23:36:06.994Z,94484.09
2022-08-08T23:38:33.261Z,94477.72
2022-08-08T23:40:59.946Z,94476.16
2022-08-08T23:43:31.691Z,94478.91
2022-08-08T23:49:03.603Z,94472.22
2022-08-08T23:49:15.245Z,94471.00
2022-08-08T23:52:06.596Z,94474.97
2022-08-08T23:54:43.007Z,94474.97
2022-08-08T23:57:27.795Z,94473.97
